createdAt,value
2023-12-02T00:00:45.581Z,27.35
2023-12-02T00:03:12.278Z,21.70
2023-12-02T00:05:38.983Z,27.33
2023-12-02T00:08:05.586Z,25.67
2023-12-02T00:10:32.120Z,24.85
2023-12-02T00:12:58.616Z,24.73
2023-12-02T00:15:25.204Z,28.02
2023-12-02T00:17:52.421Z,26.63
2023-12-02T00:20:19.013Z,26.67
2023-12-02T00:22:45.490Z,25.40
2023-12-02T00:25:12.025Z,24.30
2023-12-02T00:27:38.580Z,24.55
2023-12-02T00:30:06.332Z,23.85
2023-12-02T00:32:32.899Z,25.35
2023-12-02T00:34:59.434Z,25.10
2023-12-02T00:37:25.926Z,24.75
2023-12-02T00:39:52.466Z,26.13
2023-12-02T00:42:19.039Z,24.58
2023-12-02T00:44:45.608Z,26.33
2023-12-02T00:47:12.155Z,24.13
2023-12-02T00:49:38.723Z,25.05
2023-12-02T00:52:05.503Z,24.98
2023-12-02T00:54:35.266Z,24.20
2023-12-02T00:57:02.179Z,25.02
2023-12-02T00:59:28.767Z,25.50
2023-12-02T01:01:55.626Z,26.73
2023-12-02T01:04:22.234Z,29.88
2023-12-02T01:06:48.774Z,23.63
2023-12-02T01:09:15.395Z,24.88
2023-12-02T01:11:41.938Z,26.92
2023-12-02T01:14:08.597Z,26.50
2023-12-02T01:16:35.170Z,27.17
2023-12-02T01:19:01.768Z,28.20
2023-12-02T01:21:28.410Z,26.73
2023-12-02T01:23:55.128Z,28.67
2023-12-02T01:26:21.765Z,27.55
2023-12-02T01:28:48.277Z,26.17
2023-12-02T01:31:14.856Z,29.52
2023-12-02T01:33:41.692Z,27.17
2023-12-02T01:36:13.687Z,27.10
2023-12-02T01:38:40.240Z,27.70
2023-12-02T01:41:07.107Z,29.45
2023-12-02T01:43:34.011Z,25.73
2023-12-02T01:46:00.557Z,27.92
2023-12-02T01:48:30.014Z,25.27
2023-12-02T01:50:57.748Z,27.85
2023-12-02T01:53:24.452Z,24.23
2023-12-02T01:55:51.375Z,26.55
2023-12-02T01:58:17.930Z,27.00
2023-12-02T02:00:44.633Z,26.13
2023-12-02T02:03:11.129Z,28.65
2023-12-02T02:05:37.907Z,28.33
2023-12-02T02:08:04.442Z,27.50
2023-12-02T02:10:30.926Z,24.73
2023-12-02T02:12:57.488Z,26.92
2023-12-02T02:15:24.174Z,25.08
2023-12-02T02:17:50.745Z,27.95
2023-12-02T02:20:17.288Z,26.25
2023-12-02T02:22:43.797Z,26.55
2023-12-02T02:25:10.616Z,22.55
2023-12-02T02:27:37.183Z,25.80
2023-12-02T02:30:04.171Z,24.83
2023-12-02T02:32:30.751Z,24.75
2023-12-02T02:34:57.397Z,29.20
2023-12-02T02:37:24.183Z,26.27
2023-12-02T02:39:50.683Z,25.27
2023-12-02T02:42:17.341Z,26.67
2023-12-02T02:44:44.115Z,24.40
2023-12-02T02:47:10.595Z,24.42
2023-12-02T02:49:37.126Z,26.30
2023-12-02T02:52:04.348Z,24.10
2023-12-02T02:54:30.855Z,25.63
2023-12-02T02:56:57.562Z,25.98
2023-12-02T02:59:24.112Z,25.27
2023-12-02T03:01:50.741Z,25.90
2023-12-02T03:04:17.258Z,27.33
2023-12-02T03:06:43.857Z,23.20
2023-12-02T03:09:12.696Z,25.55
2023-12-02T03:11:39.491Z,27.55
2023-12-02T03:14:07.024Z,25.17
2023-12-02T03:16:34.008Z,24.42
2023-12-02T03:19:01.898Z,24.90
2023-12-02T03:21:28.733Z,24.35
2023-12-02T03:23:55.350Z,27.42
2023-12-02T03:26:23.719Z,28.60
2023-12-02T03:28:50.292Z,26.02
2023-12-02T03:31:16.842Z,25.52
2023-12-02T03:33:43.411Z,24.50
2023-12-02T03:36:10.490Z,26.02
2023-12-02T03:38:37.118Z,26.13
2023-12-02T03:41:03.755Z,26.65
2023-12-02T03:43:30.278Z,25.33
2023-12-02T03:45:56.961Z,25.02
2023-12-02T03:48:23.571Z,25.40
2023-12-02T03:50:50.571Z,26.67
2023-12-02T03:53:17.084Z,30.05
2023-12-02T03:55:43.659Z,28.05
2023-12-02T03:58:10.372Z,27.27
2023-12-02T04:00:37.111Z,25.77
2023-12-02T04:03:04.168Z,27.23
2023-12-02T04:05:30.692Z,28.58
2023-12-02T04:07:57.326Z,27.55
2023-12-02T04:10:23.841Z,28.05
2023-12-02T04:12:50.324Z,26.15
2023-12-02T04:15:16.968Z,30.77
2023-12-02T04:17:43.589Z,30.25
2023-12-02T04:20:12.370Z,26.27
2023-12-02T04:22:40.178Z,26.55
2023-12-02T04:25:07.320Z,28.13
2023-12-02T04:27:33.998Z,28.70
2023-12-02T04:30:00.855Z,28.17
2023-12-02T04:32:27.896Z,26.60
2023-12-02T04:34:54.656Z,26.88
2023-12-02T04:37:24.231Z,25.65
2023-12-02T04:39:52.520Z,29.90
2023-12-02T04:42:19.292Z,27.92
2023-12-02T04:44:46.296Z,30.58
2023-12-02T04:47:13.170Z,30.20
2023-12-02T04:49:40.807Z,28.85
2023-12-02T04:52:07.289Z,28.63
2023-12-02T04:54:36.371Z,31.75
2023-12-02T04:57:03.064Z,29.95
2023-12-02T04:59:29.593Z,30.70
2023-12-02T05:01:56.548Z,29.15
2023-12-02T05:04:23.137Z,28.02
2023-12-02T05:06:51.595Z,30.30
2023-12-02T05:09:18.109Z,26.70
2023-12-02T05:11:44.662Z,27.20
2023-12-02T05:14:11.143Z,29.70
2023-12-02T05:16:42.411Z,27.27
2023-12-02T05:19:09.126Z,27.17
2023-12-02T05:21:38.482Z,31.98
2023-12-02T05:24:05.154Z,27.63
2023-12-02T05:26:32.884Z,26.95
2023-12-02T05:29:02.216Z,27.15
2023-12-02T05:31:28.789Z,29.88
2023-12-02T05:33:56.485Z,30.80
2023-12-02T05:36:23.218Z,30.98
2023-12-02T05:38:49.769Z,31.13
2023-12-02T05:41:16.416Z,30.77
2023-12-02T05:43:42.951Z,28.25
2023-12-02T05:46:15.651Z,28.25
2023-12-02T05:48:42.308Z,29.33
2023-12-02T05:51:09.045Z,29.55
2023-12-02T05:53:35.645Z,29.77
2023-12-02T05:56:02.267Z,29.38
2023-12-02T05:58:28.999Z,28.08
2023-12-02T06:00:55.472Z,28.13
2023-12-02T06:03:22.180Z,25.80
2023-12-02T06:05:48.867Z,26.58
2023-12-02T06:08:15.390Z,25.90
2023-12-02T06:10:41.939Z,30.17
2023-12-02T06:13:08.480Z,28.65
2023-12-02T06:15:35.004Z,28.73
2023-12-02T06:18:02.043Z,27.58
2023-12-02T06:20:28.607Z,27.95
2023-12-02T06:22:55.166Z,27.55
2023-12-02T06:25:22.034Z,30.98
2023-12-02T06:27:48.519Z,31.23
2023-12-02T06:30:18.989Z,27.42
2023-12-02T06:32:45.906Z,30.10
2023-12-02T06:35:13.365Z,25.67
2023-12-02T06:37:39.977Z,28.80
2023-12-02T06:40:07.220Z,29.15
2023-12-02T06:42:33.981Z,31.33
2023-12-02T06:45:00.601Z,29.83
2023-12-02T06:47:27.136Z,30.02
2023-12-02T06:49:53.653Z,31.40
2023-12-02T06:52:20.207Z,30.13
2023-12-02T06:55:31.183Z,34.50
2023-12-02T06:57:33.342Z,28.77
2023-12-02T07:00:00.230Z,27.33
2023-12-02T07:02:27.594Z,32.35
2023-12-02T07:04:54.166Z,115.82
2023-12-02T07:07:20.695Z,34.17
2023-12-02T07:09:47.282Z,32.83
2023-12-02T07:12:13.865Z,34.90
2023-12-02T07:14:40.430Z,32.63
2023-12-02T07:17:06.865Z,28.92
2023-12-02T07:19:33.416Z,31.73
2023-12-02T07:22:00.024Z,30.15
2023-12-02T07:24:26.548Z,32.75
2023-12-02T07:26:53.545Z,33.28
2023-12-02T07:29:20.025Z,30.33
2023-12-02T07:31:46.859Z,29.55
2023-12-02T07:34:13.582Z,26.85
2023-12-02T07:36:40.115Z,31.40
2023-12-02T07:39:06.668Z,31.58
2023-12-02T07:41:33.238Z,36.40
2023-12-02T07:43:59.823Z,33.05
2023-12-02T07:46:27.826Z,30.65
2023-12-02T07:48:54.942Z,28.10
2023-12-02T07:51:21.472Z,33.78
2023-12-02T07:53:48.531Z,34.25
2023-12-02T07:56:17.665Z,33.15
2023-12-02T07:58:44.222Z,33.30
2023-12-02T08:01:10.776Z,33.65
2023-12-02T08:03:37.366Z,32.60
2023-12-02T08:06:04.083Z,31.52
2023-12-02T08:08:30.903Z,33.17
2023-12-02T08:10:57.566Z,36.85
2023-12-02T08:13:24.401Z,35.45
2023-12-02T08:15:51.166Z,30.60
2023-12-02T08:18:19.830Z,33.38
2023-12-02T08:20:47.887Z,32.97
2023-12-02T08:23:14.484Z,35.42
2023-12-02T08:25:41.023Z,34.92
2023-12-02T08:28:07.621Z,37.08
2023-12-02T08:30:34.191Z,38.17
2023-12-02T08:33:00.892Z,37.53
2023-12-02T08:35:27.405Z,31.48
2023-12-02T08:37:53.978Z,38.72
2023-12-02T08:40:21.149Z,35.97
2023-12-02T08:42:47.687Z,38.88
2023-12-02T08:45:14.326Z,32.28
2023-12-02T08:47:41.671Z,36.05
2023-12-02T08:50:08.486Z,35.92
2023-12-02T08:52:35.034Z,36.08
2023-12-02T08:55:01.579Z,39.30
2023-12-02T08:57:28.181Z,39.35
2023-12-02T08:59:55.450Z,34.50
2023-12-02T09:02:22.102Z,32.97
2023-12-02T09:04:48.739Z,39.03
2023-12-02T09:07:15.290Z,37.90
2023-12-02T09:09:43.392Z,37.65
2023-12-02T09:12:10.058Z,36.28
2023-12-02T09:14:36.619Z,36.60
2023-12-02T09:17:05.271Z,34.40
2023-12-02T09:19:54.852Z,41.28
2023-12-02T09:22:47.360Z,35.83
2023-12-02T09:25:32.757Z,35.80
2023-12-02T09:28:13.114Z,37.35
2023-12-02T09:31:07.009Z,36.03
2023-12-02T09:33:36.446Z,34.92
2023-12-02T09:36:04.965Z,36.72
2023-12-02T09:38:33.803Z,36.78
2023-12-02T09:41:10.463Z,36.72
2023-12-02T09:43:54.995Z,43.25
2023-12-02T09:46:32.497Z,40.95
2023-12-02T09:49:22.362Z,38.95
2023-12-02T09:52:07.488Z,39.22
2023-12-02T09:55:01.777Z,40.35
2023-12-02T09:57:46.823Z,35.97
2023-12-02T10:01:10.896Z,37.42
2023-12-02T10:07:00.233Z,39.08
2023-12-02T10:09:51.209Z,40.10
2023-12-02T10:12:34.063Z,36.58
2023-12-02T10:15:04.217Z,34.70
2023-12-02T10:17:35.160Z,35.72
2023-12-02T10:20:10.751Z,35.08
2023-12-02T10:22:46.093Z,40.53
2023-12-02T10:25:30.770Z,39.92
2023-12-02T10:28:03.133Z,36.30
2023-12-02T10:30:34.065Z,32.90
2023-12-02T10:33:11.817Z,35.75
2023-12-02T10:35:47.261Z,46.45
2023-12-02T10:38:16.791Z,37.15
2023-12-02T10:40:53.914Z,38.13
2023-12-02T10:43:39.291Z,37.05
2023-12-02T10:46:07.311Z,49.58
2023-12-02T10:48:38.269Z,34.40
2023-12-02T10:51:07.593Z,38.20
2023-12-02T10:53:37.097Z,39.80
2023-12-02T10:56:13.252Z,36.35
2023-12-02T10:58:44.268Z,37.15
2023-12-02T11:01:11.791Z,37.42
2023-12-02T11:03:44.405Z,39.35
2023-12-02T11:06:41.021Z,46.33
2023-12-02T11:09:50.372Z,40.70
2023-12-02T11:12:23.531Z,39.40
2023-12-02T11:15:06.989Z,41.60
2023-12-02T11:18:01.977Z,42.95
2023-12-02T11:20:44.338Z,68.07
2023-12-02T11:23:22.705Z,42.17
2023-12-02T11:26:02.121Z,37.80
2023-12-02T11:28:46.729Z,42.75
2023-12-02T11:31:33.865Z,38.92
2023-12-02T11:34:09.455Z,36.33
2023-12-02T11:36:54.968Z,34.78
2023-12-02T11:39:46.567Z,40.03
2023-12-02T11:42:20.015Z,45.45
2023-12-02T11:45:06.940Z,39.90
2023-12-02T11:47:43.326Z,37.88
2023-12-02T11:50:31.485Z,39.03
2023-12-02T11:53:29.090Z,42.97
2023-12-02T11:56:12.131Z,39.72
2023-12-02T11:59:16.932Z,36.83
2023-12-02T12:01:43.400Z,40.38
2023-12-02T12:04:21.831Z,38.45
2023-12-02T12:07:22.573Z,42.85
2023-12-02T12:10:04.803Z,35.67
2023-12-02T12:12:34.590Z,41.83
2023-12-02T12:15:03.637Z,38.95
2023-12-02T12:17:30.732Z,41.40
2023-12-02T12:20:00.508Z,42.20
2023-12-02T12:22:29.952Z,37.15
2023-12-02T12:24:56.482Z,41.42
2023-12-02T12:27:23.077Z,41.10
2023-12-02T12:29:54.568Z,36.63
2023-12-02T12:32:21.420Z,37.75
2023-12-02T12:34:47.981Z,38.03
2023-12-02T12:37:18.177Z,41.53
2023-12-02T12:39:45.825Z,40.17
2023-12-02T12:42:13.307Z,37.63
2023-12-02T12:44:43.059Z,36.80
2023-12-02T12:47:10.712Z,37.50
2023-12-02T12:49:42.395Z,38.30
2023-12-02T12:52:10.832Z,39.75
2023-12-02T12:54:48.331Z,36.72
2023-12-02T12:57:37.067Z,36.88
2023-12-02T13:00:07.769Z,36.08
2023-12-02T13:02:43.442Z,36.40
2023-12-02T13:05:15.677Z,34.40
2023-12-02T13:07:53.568Z,35.80
2023-12-02T13:10:21.001Z,36.88
2023-12-02T13:12:49.709Z,36.92
2023-12-02T13:15:20.883Z,38.45
2023-12-02T13:17:49.038Z,36.63
2023-12-02T13:20:17.651Z,37.58
2023-12-02T13:22:47.469Z,40.25
2023-12-02T13:25:22.830Z,31.85
2023-12-02T13:28:07.020Z,37.03
2023-12-02T13:30:36.953Z,37.05
2023-12-02T13:33:13.941Z,38.40
2023-12-02T13:35:44.697Z,38.28
2023-12-02T13:38:27.008Z,35.70
2023-12-02T13:41:26.021Z,39.00
2023-12-02T13:43:53.980Z,38.97
2023-12-02T13:46:53.721Z,38.97
2023-12-02T13:49:24.641Z,37.20
2023-12-02T13:52:04.190Z,41.22
2023-12-02T13:55:01.987Z,37.40
2023-12-02T13:57:42.270Z,38.28
2023-12-02T14:00:12.280Z,38.15
2023-12-02T14:02:57.326Z,38.20
2023-12-02T14:05:52.272Z,43.08
2023-12-02T14:08:21.473Z,38.78
2023-12-02T14:10:50.612Z,41.90
2023-12-02T14:13:20.716Z,40.83
2023-12-02T14:16:18.497Z,39.95
2023-12-02T14:19:30.853Z,40.83
2023-12-02T14:22:17.609Z,38.38
2023-12-02T14:24:57.653Z,41.65
2023-12-02T14:27:37.624Z,38.22
2023-12-02T14:30:32.962Z,39.15
2023-12-02T14:33:37.213Z,39.38
2023-12-02T14:36:12.878Z,37.90
2023-12-02T14:39:06.938Z,40.17
2023-12-02T14:41:49.764Z,40.03
2023-12-02T14:44:29.742Z,36.95
2023-12-02T14:47:07.488Z,40.85
2023-12-02T14:49:40.202Z,41.20
2023-12-02T14:52:08.123Z,41.88
2023-12-02T14:54:36.588Z,39.30
2023-12-02T14:57:23.549Z,41.20
2023-12-02T15:00:00.425Z,41.00
2023-12-02T15:02:36.809Z,41.55
2023-12-02T15:05:08.417Z,39.40
2023-12-02T15:07:54.224Z,39.08
2023-12-02T15:10:33.207Z,40.10
2023-12-02T15:13:06.948Z,40.40
2023-12-02T15:15:42.418Z,41.78
2023-12-02T15:18:16.752Z,43.22
2023-12-02T15:20:44.236Z,41.85
2023-12-02T15:23:17.024Z,40.60
2023-12-02T15:25:48.032Z,44.03
2023-12-02T15:28:19.522Z,43.67
2023-12-02T15:30:46.558Z,43.05
2023-12-02T15:33:17.298Z,43.20
2023-12-02T15:35:45.055Z,45.40
2023-12-02T15:38:14.466Z,43.08
2023-12-02T15:40:41.103Z,44.83
2023-12-02T15:43:09.220Z,41.65
2023-12-02T15:45:35.952Z,44.05
2023-12-02T15:48:02.649Z,45.47
2023-12-02T15:50:29.259Z,42.72
2023-12-02T15:52:56.633Z,45.53
2023-12-02T15:55:23.334Z,43.63
2023-12-02T15:57:50.134Z,48.67
2023-12-02T16:00:16.924Z,50.45
2023-12-02T16:02:44.519Z,43.08
2023-12-02T16:05:14.642Z,44.75
2023-12-02T16:07:42.024Z,46.00
2023-12-02T16:10:17.992Z,43.75
2023-12-02T16:12:46.315Z,42.03
2023-12-02T16:15:13.146Z,42.70
2023-12-02T16:17:40.201Z,43.50
2023-12-02T16:20:07.658Z,44.17
2023-12-02T16:22:35.290Z,42.22
2023-12-02T16:25:02.877Z,45.38
2023-12-02T16:27:29.554Z,44.70
2023-12-02T16:29:58.950Z,44.45
2023-12-02T16:32:26.409Z,48.38
2023-12-02T16:34:53.192Z,52.88
2023-12-02T16:37:20.629Z,47.80
2023-12-02T16:39:50.673Z,48.55
2023-12-02T16:42:18.224Z,44.58
2023-12-02T16:44:44.893Z,42.28
2023-12-02T16:47:46.647Z,43.55
2023-12-02T16:50:17.181Z,46.22
2023-12-02T16:52:52.286Z,46.83
2023-12-02T16:55:18.970Z,46.00
2023-12-02T16:57:52.170Z,50.88
2023-12-02T17:00:20.079Z,47.35
2023-12-02T17:02:48.642Z,47.85
2023-12-02T17:05:27.414Z,53.63
2023-12-02T17:08:07.554Z,49.50
2023-12-02T17:10:42.951Z,44.33
2023-12-02T17:13:37.437Z,44.72
2023-12-02T17:16:36.035Z,48.28
2023-12-02T17:19:10.215Z,38.97
2023-12-02T17:21:48.188Z,44.90
2023-12-02T17:24:24.319Z,45.75
2023-12-02T17:26:54.605Z,49.38
2023-12-02T17:29:26.740Z,44.53
2023-12-02T17:31:57.556Z,49.65
2023-12-02T17:34:25.052Z,47.13
2023-12-02T17:36:52.961Z,51.13
2023-12-02T17:39:20.070Z,48.92
2023-12-02T17:41:48.498Z,50.15
2023-12-02T17:44:19.086Z,49.67
2023-12-02T17:46:47.387Z,43.88
2023-12-02T17:49:14.827Z,46.33
2023-12-02T17:51:42.345Z,46.97
2023-12-02T17:54:09.172Z,45.85
2023-12-02T17:56:36.933Z,46.78
2023-12-02T17:59:03.501Z,45.72
2023-12-02T18:01:30.181Z,48.15
2023-12-02T18:03:57.550Z,45.10
2023-12-02T18:06:24.253Z,47.65
2023-12-02T18:08:52.384Z,48.53
2023-12-02T18:11:19.597Z,54.67
2023-12-02T18:13:46.153Z,45.90
2023-12-02T18:16:12.950Z,46.33
2023-12-02T18:18:39.567Z,63.08
2023-12-02T18:21:06.542Z,51.35
2023-12-02T18:23:33.186Z,52.20
2023-12-02T18:25:59.733Z,51.80
2023-12-02T18:28:26.348Z,52.30
2023-12-02T18:30:52.954Z,47.88
2023-12-02T18:33:20.578Z,48.22
2023-12-02T18:35:47.445Z,53.63
2023-12-02T18:38:14.111Z,49.90
2023-12-02T18:40:41.137Z,50.50
2023-12-02T18:43:07.856Z,55.40
2023-12-02T18:45:34.530Z,51.15
2023-12-02T18:48:01.872Z,48.38
2023-12-02T18:50:28.551Z,45.58
2023-12-02T18:52:55.044Z,49.92
2023-12-02T18:55:21.727Z,52.45
2023-12-02T18:57:48.324Z,52.20
2023-12-02T19:00:15.700Z,49.80
2023-12-02T19:02:42.312Z,50.13
2023-12-02T19:05:09.102Z,48.00
2023-12-02T19:07:35.754Z,51.88
2023-12-02T19:10:03.269Z,47.70
2023-12-02T19:12:30.310Z,53.58
2023-12-02T19:14:57.052Z,47.78
2023-12-02T19:17:23.953Z,52.70
2023-12-02T19:19:50.772Z,45.25
2023-12-02T19:22:17.530Z,46.05
2023-12-02T19:24:44.302Z,48.50
2023-12-02T19:27:11.176Z,46.63
2023-12-02T19:29:37.737Z,48.70
2023-12-02T19:32:06.780Z,39.30
2023-12-02T19:34:33.512Z,40.00
2023-12-02T19:37:02.631Z,41.33
2023-12-02T19:39:30.260Z,39.47
2023-12-02T19:41:57.073Z,42.15
2023-12-02T19:44:23.782Z,37.25
2023-12-02T19:46:57.288Z,39.92
2023-12-02T19:49:25.023Z,38.58
2023-12-02T19:51:51.813Z,36.42
2023-12-02T19:54:18.744Z,40.40
2023-12-02T19:56:49.849Z,42.83
2023-12-02T19:59:17.550Z,34.47
2023-12-02T20:01:44.200Z,34.30
2023-12-02T20:04:11.517Z,47.17
2023-12-02T20:06:38.141Z,55.13
2023-12-02T20:09:04.842Z,39.40
2023-12-02T20:11:44.160Z,41.38
2023-12-02T20:16:39.790Z,37.90
2023-12-02T20:19:06.542Z,36.60
2023-12-02T20:21:33.296Z,34.92
2023-12-02T20:23:59.949Z,32.42
2023-12-02T20:26:26.495Z,29.92
2023-12-02T20:28:53.247Z,35.17
2023-12-02T20:31:19.708Z,33.90
2023-12-02T20:33:46.417Z,33.85
2023-12-02T20:36:13.962Z,32.90
2023-12-02T20:38:40.649Z,31.75
2023-12-02T20:41:07.758Z,46.15
2023-12-02T20:43:38.215Z,43.97
2023-12-02T20:46:06.790Z,51.40
2023-12-02T20:48:37.034Z,42.95
2023-12-02T20:51:05.849Z,36.78
2023-12-02T20:53:32.686Z,39.15
2023-12-02T20:55:59.364Z,38.47
2023-12-02T20:58:26.302Z,34.55
2023-12-02T21:00:53.066Z,36.97
2023-12-02T21:03:19.631Z,39.78
2023-12-02T21:05:46.471Z,38.88
2023-12-02T21:08:13.594Z,38.88
2023-12-02T21:10:40.539Z,39.17
2023-12-02T21:13:08.182Z,40.22
2023-12-02T21:15:42.871Z,41.08
2023-12-02T21:18:11.888Z,40.80
2023-12-02T21:20:39.052Z,37.92
2023-12-02T21:23:05.726Z,37.53
2023-12-02T21:25:32.586Z,35.55
2023-12-02T21:27:59.185Z,40.10
2023-12-02T21:30:42.963Z,38.17
2023-12-02T21:33:13.881Z,40.88
2023-12-02T21:35:41.988Z,38.90
2023-12-02T21:38:29.230Z,32.05
2023-12-02T21:40:55.750Z,31.85
2023-12-02T21:43:22.272Z,33.83
2023-12-02T21:45:51.522Z,33.08
2023-12-02T21:48:45.276Z,35.22
2023-12-02T21:51:23.869Z,38.25
2023-12-02T21:53:53.233Z,37.70
2023-12-02T21:56:20.032Z,40.28
2023-12-02T21:59:09.804Z,40.75
2023-12-02T22:01:41.093Z,37.15
2023-12-02T22:04:13.554Z,38.60
2023-12-02T22:06:51.408Z,41.38
2023-12-02T22:09:27.050Z,40.90
2023-12-02T22:11:55.745Z,45.70
2023-12-02T22:14:24.214Z,46.42
2023-12-02T22:16:57.487Z,46.13
2023-12-02T22:19:24.433Z,45.17
2023-12-02T22:21:52.811Z,51.22
2023-12-02T22:24:19.442Z,46.10
2023-12-02T22:26:46.289Z,49.67
2023-12-02T22:29:25.078Z,46.38
2023-12-02T22:31:52.214Z,42.38
2023-12-02T22:34:19.337Z,46.22
2023-12-02T22:36:47.580Z,49.28
2023-12-02T22:39:25.181Z,45.78
2023-12-02T22:41:53.705Z,46.55
2023-12-02T22:44:21.485Z,49.42
2023-12-02T22:46:57.170Z,50.40
2023-12-02T22:49:28.027Z,50.92
2023-12-02T22:51:57.660Z,49.17
2023-12-02T22:54:37.785Z,46.33
2023-12-02T22:57:05.047Z,46.45
2023-12-02T22:59:31.651Z,48.53
2023-12-02T23:01:58.263Z,48.03
2023-12-02T23:04:39.585Z,45.28
2023-12-02T23:07:11.914Z,45.17
2023-12-02T23:09:43.302Z,42.65
2023-12-02T23:12:36.462Z,43.08
2023-12-02T23:17:31.472Z,34.95
2023-12-02T23:20:03.662Z,36.58
2023-12-02T23:22:30.404Z,36.17
2023-12-02T23:24:56.956Z,37.00
2023-12-02T23:27:39.748Z,37.00
2023-12-02T23:30:15.323Z,33.67
2023-12-02T23:32:42.069Z,34.42
2023-12-02T23:35:09.032Z,32.03
2023-12-02T23:37:35.586Z,30.80
2023-12-02T23:40:02.379Z,27.10
2023-12-02T23:42:41.181Z,30.60
2023-12-02T23:45:08.833Z,32.92
2023-12-02T23:47:36.261Z,29.00
2023-12-02T23:50:03.827Z,30.52
2023-12-02T23:52:30.471Z,33.55
2023-12-02T23:54:57.030Z,32.03
2023-12-02T23:57:24.466Z,29.23
2023-12-02T23:59:51.611Z,32.60
